createdAt,value
2022-11-01T00:02:12.310Z,97902.72
2022-11-01T00:04:40.218Z,97894.34
2022-11-01T00:07:07.298Z,97884.06
2022-11-01T00:09:35.019Z,97893.72
2022-11-01T00:12:02.228Z,97885.84
2022-11-01T00:14:29.465Z,97891.81
2022-11-01T00:16:56.863Z,97885.03
2022-11-01T00:19:24.194Z,97883.22
2022-11-01T00:21:51.281Z,97885.31
2022-11-01T00:24:18.350Z,97887.44
2022-11-01T00:26:45.778Z,97875.50
2022-11-01T00:29:13.182Z,97884.91
2022-11-01T00:31:40.909Z,97885.22
2022-11-01T00:34:08.406Z,97881.03
2022-11-01T00:36:36.447Z,97887.16
2022-11-01T00:39:03.992Z,97881.78
2022-11-01T00:41:31.234Z,97885.56
2022-11-01T00:43:58.438Z,97878.88
2022-11-01T00:46:25.838Z,97879.91
2022-11-01T00:48:52.940Z,97874.78
2022-11-01T00:51:21.693Z,97879.06
2022-11-01T00:53:49.000Z,97883.28
2022-11-01T00:56:16.554Z,97879.91
2022-11-01T00:58:44.042Z,97879.91
2022-11-01T01:01:11.324Z,97875.94
2022-11-01T01:03:39.286Z,97874.25
2022-11-01T01:06:06.445Z,97866.28
2022-11-01T01:08:33.785Z,97863.34
2022-11-01T01:11:01.157Z,97863.59
2022-11-01T01:13:28.223Z,97862.13
2022-11-01T01:15:55.804Z,97861.25
2022-11-01T01:18:22.987Z,97858.63
2022-11-01T01:20:50.088Z,97871.53
2022-11-01T01:23:17.440Z,97862.84
2022-11-01T01:25:44.685Z,97865.66
2022-11-01T01:28:11.806Z,97866.09
2022-11-01T01:30:42.616Z,97869.56
2022-11-01T01:35:44.025Z,97865.03
2022-11-01T01:38:11.417Z,97866.09
2022-11-01T01:40:38.704Z,97867.97
2022-11-01T01:43:06.037Z,97868.19
2022-11-01T01:45:39.610Z,97872.38
2022-11-01T01:48:27.807Z,97869.84
2022-11-01T01:51:02.918Z,97872.38
2022-11-01T01:53:32.330Z,97867.97
2022-11-01T01:56:06.652Z,97867.97
2022-11-01T01:58:42.173Z,97873.41
2022-11-01T02:01:09.772Z,97874.69
2022-11-01T02:03:38.859Z,97877.41
2022-11-01T02:06:15.492Z,97864.63
2022-11-01T02:08:45.126Z,97870.81
2022-11-01T02:11:14.845Z,97874.66
2022-11-01T02:13:42.201Z,97873.19
2022-11-01T02:16:23.469Z,97879.38
2022-11-01T02:19:09.174Z,97883.88
2022-11-01T02:22:01.104Z,97880.31
2022-11-01T02:24:54.938Z,97882.19
2022-11-01T02:27:42.898Z,97885.53
2022-11-01T02:30:23.178Z,97883.78
2022-11-01T02:33:13.627Z,97891.72
2022-11-01T02:36:05.062Z,97890.06
2022-11-01T02:38:40.596Z,97896.97
2022-11-01T02:41:24.186Z,97892.69
2022-11-01T02:44:00.342Z,97902.63
2022-11-01T02:46:49.763Z,97907.13
2022-11-01T02:49:19.646Z,97899.56
2022-11-01T02:51:47.457Z,97900.41
2022-11-01T02:54:32.095Z,97901.25
2022-11-01T02:57:04.819Z,97900.41
2022-11-01T02:59:44.804Z,97897.03
2022-11-01T03:02:39.871Z,97907.72
2022-11-01T03:05:09.752Z,97901.63
2022-11-01T03:07:36.917Z,97909.41
2022-11-01T03:10:04.650Z,97902.47
2022-11-01T03:12:36.977Z,97903.41
2022-11-01T03:15:21.232Z,97912.03
2022-11-01T03:18:05.609Z,97906.88
2022-11-01T03:20:48.136Z,97902.91
2022-11-01T03:23:22.805Z,97908.97
2022-11-01T03:25:56.428Z,97912.09
2022-11-01T03:28:36.593Z,97907.06
2022-11-01T03:31:26.116Z,97917.53
2022-11-01T03:33:57.036Z,97912.47
2022-11-01T03:36:31.170Z,97921.28
2022-11-01T03:39:03.198Z,97918.75
2022-11-01T03:41:36.739Z,97924.84
2022-11-01T03:44:05.204Z,97914.38
2022-11-01T03:46:33.028Z,97917.91
2022-11-01T03:49:00.313Z,97911.94
2022-11-01T03:51:27.312Z,97925.03
2022-11-01T03:53:57.163Z,97918.31
2022-11-01T03:56:24.428Z,97930.28
2022-11-01T03:58:51.598Z,97925.22
2022-11-01T04:01:18.978Z,97932.13
2022-11-01T04:03:46.223Z,97923.56
2022-11-01T04:06:13.366Z,97928.78
2022-11-01T04:08:40.611Z,97936.63
2022-11-01T04:11:07.831Z,97928.78
2022-11-01T04:13:34.851Z,97920.38
2022-11-01T04:16:20.356Z,97926.66
2022-11-01T04:19:06.075Z,97922.47
2022-11-01T04:21:33.510Z,97925.06
2022-11-01T04:24:00.807Z,97926.03
2022-11-01T04:26:27.895Z,97930.63
2022-11-01T04:28:57.989Z,97924.75
2022-11-01T04:31:31.362Z,97917.81
2022-11-01T04:33:59.623Z,97914.66
2022-11-01T04:36:27.436Z,97923.03
2022-11-01T04:38:57.268Z,97926.59
2022-11-01T04:41:30.627Z,97920.63
2022-11-01T04:44:00.270Z,97919.78
2022-11-01T04:46:32.023Z,97926.16
2022-11-01T04:48:59.254Z,97923.63
2022-11-01T04:51:26.422Z,97927.91
2022-11-01T04:53:53.587Z,97928.69
2022-11-01T04:56:20.686Z,97928.88
2022-11-01T04:58:47.614Z,97929.59
2022-11-01T05:01:15.377Z,97938.50
2022-11-01T05:03:42.628Z,97934.09
2022-11-01T05:06:09.924Z,97929.16
2022-11-01T05:08:37.008Z,97943.81
2022-11-01T05:11:04.297Z,97941.94
2022-11-01T05:13:31.306Z,97947.06
2022-11-01T05:16:18.450Z,97940.28
2022-11-01T05:18:46.281Z,97937.84
2022-11-01T05:21:13.288Z,97940.47
2022-11-01T05:23:40.276Z,97948.94
2022-11-01T05:26:07.570Z,97946.22
2022-11-01T05:28:35.087Z,97951.38
2022-11-01T05:31:02.395Z,97949.38
2022-11-01T05:33:29.314Z,97958.94
2022-11-01T05:35:56.430Z,97955.25
2022-11-01T05:38:23.638Z,97950.69
2022-11-01T05:40:50.793Z,97962.44
2022-11-01T05:43:17.776Z,97949.28
2022-11-01T05:45:45.100Z,97951.06
2022-11-01T05:48:12.336Z,97961.22
2022-11-01T05:50:39.507Z,97959.78
2022-11-01T05:53:08.399Z,97961.19
2022-11-01T05:55:36.731Z,97962.53
2022-11-01T05:58:04.132Z,97959.72
2022-11-01T06:00:31.832Z,97962.69
2022-11-01T06:02:59.654Z,97967.53
2022-11-01T06:05:28.185Z,97962.63
2022-11-01T06:07:55.484Z,97969.13
2022-11-01T06:10:22.810Z,97961.84
2022-11-01T06:12:49.919Z,97972.63
2022-11-01T06:15:17.026Z,97971.50
2022-11-01T06:17:43.994Z,97971.72
2022-11-01T06:20:11.949Z,97970.25
2022-11-01T06:22:39.258Z,97971.31
2022-11-01T06:25:07.162Z,97977.63
2022-11-01T06:27:34.088Z,97980.34
2022-11-01T06:30:01.207Z,97976.38
2022-11-01T06:32:28.104Z,97973.81
2022-11-01T06:34:55.109Z,97975.53
2022-11-01T06:37:22.139Z,97977.34
2022-11-01T06:39:49.488Z,97972.25
2022-11-01T06:42:16.859Z,97982.66
2022-11-01T06:44:44.148Z,97973.31
2022-11-01T06:47:13.952Z,97979.16
2022-11-01T06:49:41.568Z,97976.22
2022-11-01T06:52:09.359Z,97972.31
2022-11-01T06:54:36.565Z,97964.09
2022-11-01T06:57:03.625Z,97973.34
2022-11-01T06:59:30.495Z,97967.09
2022-11-01T07:01:57.749Z,97966.53
2022-11-01T07:04:27.336Z,97966.28
2022-11-01T07:06:54.301Z,97959.31
2022-11-01T07:09:21.299Z,97964.44
2022-11-01T07:11:48.225Z,97963.75
2022-11-01T07:14:15.176Z,97960.06
2022-11-01T07:16:42.211Z,97961.66
2022-11-01T07:19:09.248Z,97961.16
2022-11-01T07:21:36.308Z,97970.22
2022-11-01T07:24:03.330Z,97953.41
2022-11-01T07:26:30.486Z,97947.09
2022-11-01T07:28:57.415Z,97954.44
2022-11-01T07:31:25.642Z,97944.63
2022-11-01T07:33:52.729Z,97951.50
2022-11-01T07:36:20.123Z,97941.53
2022-11-01T07:38:47.223Z,97943.53
2022-11-01T07:41:14.275Z,97941.44
2022-11-01T07:43:41.440Z,97937.97
2022-11-01T07:46:08.640Z,97941.47
2022-11-01T07:48:37.145Z,97927.97
2022-11-01T07:51:06.357Z,97941.16
2022-11-01T07:53:34.289Z,97938.00
2022-11-01T07:56:02.088Z,97931.31
2022-11-01T07:58:29.357Z,97937.19
2022-11-01T08:00:56.508Z,97934.97
2022-11-01T08:03:24.337Z,97937.75
2022-11-01T08:05:51.814Z,97930.81
2022-11-01T08:08:19.255Z,97929.19
2022-11-01T08:10:46.614Z,97917.91
2022-11-01T08:13:19.554Z,97924.91
2022-11-01T08:15:48.236Z,97919.06
2022-11-01T08:18:16.476Z,97912.59
2022-11-01T08:20:45.695Z,97915.91
2022-11-01T08:23:13.397Z,97910.22
2022-11-01T08:25:40.302Z,97905.66
2022-11-01T08:28:11.358Z,97912.78
2022-11-01T08:30:40.498Z,97908.06
2022-11-01T08:33:07.732Z,97904.28
2022-11-01T08:35:38.144Z,97905.56
2022-11-01T08:38:05.553Z,97901.47
2022-11-01T08:40:33.574Z,97897.13
2022-11-01T08:43:01.147Z,97891.38
2022-11-01T08:45:29.068Z,97889.97
2022-11-01T08:48:03.613Z,97893.69
2022-11-01T08:50:32.079Z,97887.91
2022-11-01T08:52:59.222Z,97889.75
2022-11-01T08:55:26.652Z,97884.25
2022-11-01T08:57:53.700Z,97882.41
2022-11-01T09:00:21.693Z,97885.06
2022-11-01T09:02:48.696Z,97884.94
2022-11-01T09:05:15.919Z,97880.75
2022-11-01T09:07:42.870Z,97876.00
2022-11-01T09:10:10.771Z,97880.84
2022-11-01T09:12:38.415Z,97879.53
2022-11-01T09:15:06.113Z,97872.06
2022-11-01T09:17:33.241Z,97872.59
2022-11-01T09:20:00.216Z,97872.91
2022-11-01T09:22:27.489Z,97869.25
2022-11-01T09:24:57.173Z,97870.19
2022-11-01T09:27:24.839Z,97855.78
2022-11-01T09:29:52.161Z,97865.50
2022-11-01T09:32:21.442Z,97866.66
2022-11-01T09:34:49.573Z,97858.66
2022-11-01T09:37:17.190Z,97854.34
2022-11-01T09:39:44.193Z,97847.00
2022-11-01T09:42:21.981Z,97849.28
2022-11-01T09:44:58.049Z,97844.81
2022-11-01T09:47:28.684Z,97840.97
2022-11-01T09:50:12.977Z,97846.72
2022-11-01T09:52:41.396Z,97840.31
2022-11-01T09:55:16.749Z,97841.19
2022-11-01T09:58:14.794Z,97841.41
2022-11-01T10:00:49.045Z,97836.28
2022-11-01T10:03:21.380Z,97835.88
2022-11-01T10:06:09.968Z,97835.03
2022-11-01T10:08:36.827Z,97830.09
2022-11-01T10:11:21.899Z,97830.94
2022-11-01T10:14:05.256Z,97828.25
2022-11-01T10:16:42.260Z,97823.53
2022-11-01T10:19:19.541Z,97817.34
2022-11-01T10:21:56.993Z,97830.59
2022-11-01T10:24:26.861Z,97828.13
2022-11-01T10:27:15.369Z,97822.59
2022-11-01T10:29:57.867Z,97830.22
2022-11-01T10:32:34.006Z,97816.63
2022-11-01T10:35:07.256Z,97828.56
2022-11-01T10:37:43.733Z,97817.81
2022-11-01T10:40:34.188Z,97820.31
2022-11-01T10:43:02.270Z,97812.88
2022-11-01T10:45:31.118Z,97811.00
2022-11-01T10:47:59.072Z,97808.75
2022-11-01T10:50:29.222Z,97807.94
2022-11-01T10:53:18.786Z,97806.31
2022-11-01T10:55:53.032Z,97805.03
2022-11-01T10:58:29.019Z,97795.97
2022-11-01T11:00:56.451Z,97801.75
2022-11-01T11:03:25.250Z,97799.47
2022-11-01T11:05:54.609Z,97795.56
2022-11-01T11:08:24.104Z,97791.41
2022-11-01T11:10:52.378Z,97782.31
2022-11-01T11:13:23.046Z,97794.31
2022-11-01T11:16:06.422Z,97783.78
2022-11-01T11:18:39.305Z,97784.19
2022-11-01T11:21:14.053Z,97777.13
2022-11-01T11:23:46.466Z,97782.31
2022-11-01T11:26:17.948Z,97771.97
2022-11-01T11:28:57.298Z,97783.13
2022-11-01T11:31:31.724Z,97768.63
2022-11-01T11:34:17.033Z,97765.31
2022-11-01T11:36:49.985Z,97766.53
2022-11-01T11:39:57.725Z,97768.03
2022-11-01T11:42:30.606Z,97753.97
2022-11-01T11:45:20.615Z,97759.72
2022-11-01T11:47:50.974Z,97759.72
2022-11-01T11:50:21.169Z,97765.09
2022-11-01T11:52:52.006Z,97765.31
2022-11-01T11:55:48.025Z,97762.41
2022-11-01T11:58:35.491Z,97764.44
2022-11-01T12:01:08.200Z,97768.19
2022-11-01T12:03:54.726Z,97764.25
2022-11-01T12:06:25.455Z,97762.00
2022-11-01T12:08:55.260Z,97763.25
2022-11-01T12:11:37.359Z,97763.25
2022-11-01T12:14:24.620Z,97767.78
2022-11-01T12:16:51.673Z,97752.31
2022-11-01T12:19:26.729Z,97761.59
2022-11-01T12:21:54.924Z,97747.56
2022-11-01T12:24:47.205Z,97752.94
2022-11-01T12:27:26.153Z,97753.56
2022-11-01T12:30:00.284Z,97746.94
2022-11-01T12:32:33.817Z,97751.53
2022-11-01T12:35:06.637Z,97750.06
2022-11-01T12:38:13.242Z,97747.59
2022-11-01T12:40:43.842Z,97748.38
2022-11-01T12:43:23.539Z,97750.06
2022-11-01T12:46:11.790Z,97744.69
2022-11-01T12:49:03.103Z,97740.16
2022-11-01T12:51:52.811Z,97749.66
2022-11-01T12:54:29.372Z,97737.88
2022-11-01T12:56:57.085Z,97743.06
2022-11-01T12:59:37.759Z,97746.34
2022-11-01T13:02:31.288Z,97737.28
2022-11-01T13:05:07.863Z,97733.97
2022-11-01T13:07:58.493Z,97737.28
2022-11-01T13:10:36.555Z,97740.19
2022-11-01T13:13:47.996Z,97731.50
2022-11-01T13:16:18.991Z,97733.13
2022-11-01T13:19:14.388Z,97727.75
2022-11-01T13:21:55.011Z,97726.94
2022-11-01T13:24:37.553Z,97732.13
2022-11-01T13:27:11.773Z,97737.06
2022-11-01T13:29:52.804Z,97738.94
2022-11-01T13:32:43.643Z,97734.38
2022-11-01T13:35:29.212Z,97738.13
2022-11-01T13:38:01.384Z,97733.56
2022-11-01T13:40:36.045Z,97729.22
2022-11-01T13:43:27.526Z,97732.31
2022-11-01T13:46:29.514Z,97732.72
2022-11-01T13:49:28.609Z,97731.44
2022-11-01T13:52:24.293Z,97731.88
2022-11-01T13:55:22.003Z,97735.38
2022-11-01T13:57:49.229Z,97727.94
2022-11-01T14:00:44.870Z,97735.56
2022-11-01T14:03:27.360Z,97732.22
2022-11-01T14:06:36.621Z,97727.69
2022-11-01T14:09:28.513Z,97727.03
2022-11-01T14:12:04.698Z,97726.59
2022-11-01T14:14:32.104Z,97723.47
2022-11-01T14:17:20.954Z,97718.66
2022-11-01T14:20:10.886Z,97721.50
2022-11-01T14:22:40.601Z,97725.38
2022-11-01T14:25:14.024Z,97729.00
2022-11-01T14:27:50.459Z,97723.97
2022-11-01T14:30:23.963Z,97726.34
2022-11-01T14:32:57.532Z,97732.19
2022-11-01T14:35:28.473Z,97728.91
2022-11-01T14:38:03.440Z,97728.56
2022-11-01T14:40:33.781Z,97735.63
2022-11-01T14:43:24.484Z,97734.41
2022-11-01T14:45:58.046Z,97739.69
2022-11-01T14:49:00.296Z,97746.38
2022-11-01T14:51:33.183Z,97736.66
2022-11-01T14:54:16.163Z,97741.25
2022-11-01T14:56:49.855Z,97744.97
2022-11-01T14:59:28.807Z,97736.38
2022-11-01T15:02:03.012Z,97744.59
2022-11-01T15:04:38.262Z,97749.06
2022-11-01T15:07:19.582Z,97749.59
2022-11-01T15:10:12.724Z,97735.25
2022-11-01T15:12:49.909Z,97737.22
2022-11-01T15:15:23.974Z,97743.22
2022-11-01T15:17:57.843Z,97749.59
2022-11-01T15:20:38.793Z,97749.97
2022-11-01T15:23:14.961Z,97751.66
2022-11-01T15:25:43.550Z,97752.94
2022-11-01T15:28:22.992Z,97760.22
2022-11-01T15:30:58.240Z,97747.38
2022-11-01T15:33:35.991Z,97752.16
2022-11-01T15:36:20.488Z,97763.38
2022-11-01T15:38:56.533Z,97764.66
2022-11-01T15:41:32.481Z,97764.09
2022-11-01T15:44:06.314Z,97762.16
2022-11-01T15:46:43.698Z,97755.09
2022-11-01T15:49:25.039Z,97757.88
2022-11-01T15:51:56.472Z,97765.56
2022-11-01T15:54:42.957Z,97771.09
2022-11-01T15:57:24.573Z,97772.78
2022-11-01T15:59:57.783Z,97778.63
2022-11-01T16:02:35.701Z,97779.66
2022-11-01T16:05:03.505Z,97782.53
2022-11-01T16:07:33.605Z,97787.03
2022-11-01T16:10:03.860Z,97785.75
2022-11-01T16:12:36.562Z,97794.03
2022-11-01T16:15:07.762Z,97789.31
2022-11-01T16:17:40.673Z,97800.91
2022-11-01T16:20:41.301Z,97800.09
2022-11-01T16:23:12.590Z,97804.63
2022-11-01T16:25:40.081Z,97813.56
2022-11-01T16:28:28.875Z,97810.13
2022-11-01T16:30:58.015Z,97819.75
2022-11-01T16:33:28.053Z,97822.00
2022-11-01T16:36:00.714Z,97822.72
2022-11-01T16:38:33.741Z,97821.16
2022-11-01T16:41:20.887Z,97823.53
2022-11-01T16:43:52.526Z,97831.78
2022-11-01T16:46:20.891Z,97831.50
2022-11-01T16:49:00.165Z,97825.09
2022-11-01T16:51:29.374Z,97836.91
2022-11-01T16:53:58.553Z,97835.81
2022-11-01T16:56:37.112Z,97836.78
2022-11-01T16:59:42.496Z,97835.66
2022-11-01T17:02:25.306Z,97841.38
2022-11-01T17:04:59.217Z,97840.66
2022-11-01T17:07:26.757Z,97843.72
2022-11-01T17:09:53.797Z,97847.75
2022-11-01T17:12:21.654Z,97842.84
2022-11-01T17:14:57.542Z,97848.41
2022-11-01T17:18:33.784Z,97849.78
2022-11-01T17:20:53.135Z,97840.34
2022-11-01T17:23:23.831Z,97846.19
2022-11-01T17:25:53.972Z,97847.50
2022-11-01T17:28:24.235Z,97843.88
2022-11-01T17:30:51.955Z,97839.25
2022-11-01T17:33:20.820Z,97843.56
2022-11-01T17:35:48.811Z,97846.03
2022-11-01T17:38:21.159Z,97841.53
2022-11-01T17:40:49.892Z,97847.81
2022-11-01T17:43:19.054Z,97847.94
2022-11-01T17:45:47.226Z,97850.44
2022-11-01T17:48:14.895Z,97841.13
2022-11-01T17:50:42.472Z,97854.78
2022-11-01T17:53:13.321Z,97843.66
2022-11-01T17:55:43.967Z,97843.06
2022-11-01T17:58:11.744Z,97838.88
2022-11-01T18:00:43.163Z,97844.41
2022-11-01T18:03:10.894Z,97838.44
2022-11-01T18:05:37.939Z,97830.22
2022-11-01T18:08:16.541Z,97833.84
2022-11-01T18:11:15.762Z,97831.81
2022-11-01T18:14:04.030Z,97823.47
2022-11-01T18:16:48.928Z,97824.56
2022-11-01T18:19:30.287Z,97825.69
2022-11-01T18:22:20.067Z,97819.69
2022-11-01T18:24:53.882Z,97814.81
2022-11-01T18:27:31.245Z,97819.75
2022-11-01T18:29:58.174Z,97820.97
2022-11-01T18:32:32.388Z,97818.34
2022-11-01T18:35:05.760Z,97815.25
2022-11-01T18:37:51.508Z,97810.75
2022-11-01T18:40:29.663Z,97818.22
2022-11-01T18:42:56.942Z,97813.19
2022-11-01T18:45:33.065Z,97811.06
2022-11-01T18:48:13.577Z,97820.63
2022-11-01T18:50:40.501Z,97813.69
2022-11-01T18:53:14.836Z,97819.19
2022-11-01T18:55:44.652Z,97812.75
2022-11-01T18:58:16.867Z,97804.66
2022-11-01T19:00:44.603Z,97817.97
2022-11-01T19:03:13.739Z,97817.38
2022-11-01T19:05:42.389Z,97811.19
2022-11-01T19:08:25.680Z,97813.38
2022-11-01T19:10:54.470Z,97809.41
2022-11-01T19:13:28.899Z,97813.84
2022-11-01T19:15:58.265Z,97812.44
2022-11-01T19:18:25.600Z,97815.75
2022-11-01T19:20:58.624Z,97813.25
2022-11-01T19:23:32.414Z,97819.59
2022-11-01T19:25:59.460Z,97818.19
2022-11-01T19:28:35.437Z,97826.06
2022-11-01T19:31:27.607Z,97819.25
2022-11-01T19:34:02.653Z,97823.19
2022-11-01T19:36:40.752Z,97826.06
2022-11-01T19:39:22.139Z,97821.88
2022-11-01T19:41:49.309Z,97831.78
2022-11-01T19:44:21.750Z,97829.31
2022-11-01T19:46:49.266Z,97825.09
2022-11-01T19:49:27.757Z,97823.69
2022-11-01T19:52:24.511Z,97827.50
2022-11-01T19:54:53.476Z,97830.28
2022-11-01T19:57:33.965Z,97824.66
2022-11-01T20:00:25.302Z,97828.22
2022-11-01T20:02:55.433Z,97823.47
2022-11-01T20:05:33.480Z,97832.78
2022-11-01T20:08:22.416Z,97827.53
2022-11-01T20:10:49.605Z,97822.75
2022-11-01T20:13:16.960Z,97825.50
2022-11-01T20:15:44.556Z,97829.06
2022-11-01T20:18:11.551Z,97822.28
2022-11-01T20:20:44.349Z,97830.84
2022-11-01T20:23:25.884Z,97828.72
2022-11-01T20:25:54.116Z,97828.72
2022-11-01T20:28:21.317Z,97823.19
2022-11-01T20:30:48.206Z,97833.25
2022-11-01T20:33:16.369Z,97825.81
2022-11-01T20:35:43.870Z,97827.00
2022-11-01T20:38:11.075Z,97830.59
2022-11-01T20:40:38.049Z,97832.50
2022-11-01T20:43:06.745Z,97827.47
2022-11-01T20:45:37.529Z,97829.16
2022-11-01T20:48:07.713Z,97831.28
2022-11-01T20:50:35.763Z,97829.38
2022-11-01T20:53:02.883Z,97840.13
2022-11-01T20:55:29.984Z,97835.09
2022-11-01T20:57:57.135Z,97835.31
2022-11-01T21:00:24.257Z,97835.59
2022-11-01T21:02:51.708Z,97836.50
2022-11-01T21:05:23.274Z,97840.84
2022-11-01T21:07:55.100Z,97833.06
2022-11-01T21:10:35.075Z,97830.78
2022-11-01T21:13:07.501Z,97827.53
2022-11-01T21:15:39.368Z,97819.66
2022-11-01T21:18:09.824Z,97823.47
2022-11-01T21:20:42.748Z,97825.28
2022-11-01T21:23:21.579Z,97822.66
2022-11-01T21:26:00.808Z,97820.25
2022-11-01T21:28:34.527Z,97813.56
2022-11-01T21:31:23.218Z,97811.38
2022-11-01T21:33:54.419Z,97813.25
2022-11-01T21:36:21.626Z,97822.31
2022-11-01T21:39:00.176Z,97824.25
2022-11-01T21:41:42.548Z,97810.59
2022-11-01T21:44:18.651Z,97812.53
2022-11-01T21:46:54.919Z,97809.16
2022-11-01T21:49:33.365Z,97814.41
2022-11-01T21:52:02.619Z,97811.06
2022-11-01T21:54:31.656Z,97803.53
2022-11-01T21:56:58.890Z,97810.56
2022-11-01T21:59:27.209Z,97805.03
2022-11-01T22:01:56.347Z,97802.78
2022-11-01T22:04:28.490Z,97807.88
2022-11-01T22:07:03.937Z,97806.34
2022-11-01T22:09:32.206Z,97798.56
2022-11-01T22:11:59.645Z,97792.63
2022-11-01T22:14:26.573Z,97788.97
2022-11-01T22:16:53.663Z,97787.38
2022-11-01T22:19:21.022Z,97800.50
2022-11-01T22:21:48.136Z,97794.63
2022-11-01T22:24:15.067Z,97794.22
2022-11-01T22:26:42.111Z,97788.03
2022-11-01T22:29:09.390Z,97787.31
2022-11-01T22:31:36.432Z,97778.06
2022-11-01T22:34:03.966Z,97781.03
2022-11-01T22:36:34.895Z,97775.25
2022-11-01T22:39:27.051Z,97775.19
2022-11-01T22:41:55.200Z,97775.41
2022-11-01T22:44:30.732Z,97778.78
2022-11-01T22:47:00.110Z,97772.78
2022-11-01T22:49:31.093Z,97768.72
2022-11-01T22:52:03.457Z,97774.59
2022-11-01T22:54:38.934Z,97770.63
2022-11-01T22:57:08.956Z,97772.31
2022-11-01T22:59:48.360Z,97769.56
2022-11-01T23:02:37.567Z,97764.31
2022-11-01T23:05:07.688Z,97759.19
2022-11-01T23:07:49.167Z,97759.75
2022-11-01T23:10:46.036Z,97764.88
2022-11-01T23:13:31.465Z,97745.69
2022-11-01T23:16:11.057Z,97748.44
2022-11-01T23:18:40.568Z,97753.66
2022-11-01T23:21:09.293Z,97757.00
2022-11-01T23:23:41.072Z,97744.84
2022-11-01T23:26:08.695Z,97758.38
2022-11-01T23:28:37.484Z,97757.47
2022-11-01T23:31:05.820Z,97750.97
2022-11-01T23:33:52.259Z,97756.00
2022-11-01T23:36:23.936Z,97755.25
2022-11-01T23:39:04.017Z,97757.16
2022-11-01T23:41:41.190Z,97750.16
2022-11-01T23:44:37.925Z,97758.84
2022-11-01T23:47:40.441Z,97758.31
2022-11-01T23:50:16.582Z,97759.38
2022-11-01T23:52:47.193Z,97763.06
2022-11-01T23:55:25.481Z,97752.78
2022-11-01T23:58:04.281Z,97757.31
